sensor_id;sensor_type;location;lat;lon;timestamp;P1;durP1;ratioP1;P2;durP2;ratioP2
5710;SDS011;61291;52.524;13.422;2023-07-31T00:00:58;73.20;;;68.50;;
5710;SDS011;61291;52.524;13.422;2023-07-31T00:03:23;74.53;;;69.73;;
5710;SDS011;61291;52.524;13.422;2023-07-31T00:05:49;70.53;;;65.93;;
5710;SDS011;61291;52.524;13.422;2023-07-31T00:08:14;75.10;;;69.93;;
5710;SDS011;61291;52.524;13.422;2023-07-31T00:10:39;72.03;;;67.07;;
5710;SDS011;61291;52.524;13.422;2023-07-31T00:13:05;70.90;;;65.87;;
5710;SDS011;61291;52.524;13.422;2023-07-31T00:15:30;71.60;;;67.30;;
5710;SDS011;61291;52.524;13.422;2023-07-31T00:17:56;71.57;;;66.53;;
5710;SDS011;61291;52.524;13.422;2023-07-31T00:20:21;71.20;;;66.20;;
5710;SDS011;61291;52.524;13.422;2023-07-31T00:22:47;72.83;;;67.80;;
5710;SDS011;61291;52.524;13.422;2023-07-31T00:25:12;70.10;;;65.50;;
5710;SDS011;61291;52.524;13.422;2023-07-31T00:27:38;70.33;;;65.77;;
5710;SDS011;61291;52.524;13.422;2023-07-31T00:30:03;72.60;;;68.00;;
5710;SDS011;61291;52.524;13.422;2023-07-31T00:32:29;74.43;;;69.47;;
5710;SDS011;61291;52.524;13.422;2023-07-31T00:34:55;76.60;;;71.70;;
5710;SDS011;61291;52.524;13.422;2023-07-31T00:37:20;70.90;;;65.90;;
5710;SDS011;61291;52.524;13.422;2023-07-31T00:39:46;73.43;;;68.20;;
5710;SDS011;61291;52.524;13.422;2023-07-31T00:42:11;73.67;;;68.50;;
5710;SDS011;61291;52.524;13.422;2023-07-31T00:44:37;71.13;;;66.73;;
5710;SDS011;61291;52.524;13.422;2023-07-31T00:47:02;75.80;;;70.10;;
5710;SDS011;61291;52.524;13.422;2023-07-31T00:49:28;74.30;;;69.40;;
5710;SDS011;61291;52.524;13.422;2023-07-31T00:51:53;58.20;;;54.17;;
5710;SDS011;61291;52.524;13.422;2023-07-31T00:54:19;73.97;;;69.27;;
5710;SDS011;61291;52.524;13.422;2023-07-31T00:56:45;75.73;;;70.70;;
5710;SDS011;61291;52.524;13.422;2023-07-31T00:59:13;77.77;;;72.67;;
5710;SDS011;61291;52.524;13.422;2023-07-31T01:01:38;77.13;;;72.43;;
5710;SDS011;61291;52.524;13.422;2023-07-31T01:04:05;77.47;;;72.70;;
5710;SDS011;61291;52.524;13.422;2023-07-31T01:06:36;79.03;;;73.90;;
5710;SDS011;61291;52.524;13.422;2023-07-31T01:09:20;79.47;;;74.30;;
5710;SDS011;61291;52.524;13.422;2023-07-31T01:12:26;77.93;;;73.03;;
5710;SDS011;61291;52.524;13.422;2023-07-31T01:15:07;74.83;;;70.27;;
5710;SDS011;61291;52.524;13.422;2023-07-31T01:17:37;76.70;;;71.50;;
5710;SDS011;61291;52.524;13.422;2023-07-31T01:20:03;77.83;;;72.93;;
5710;SDS011;61291;52.524;13.422;2023-07-31T01:22:39;74.40;;;69.70;;
5710;SDS011;61291;52.524;13.422;2023-07-31T01:28:11;77.70;;;72.80;;
5710;SDS011;61291;52.524;13.422;2023-07-31T01:30:43;67.15;;;62.70;;
5710;SDS011;61291;52.524;13.422;2023-07-31T01:33:11;80.40;;;75.07;;
5710;SDS011;61291;52.524;13.422;2023-07-31T01:35:37;78.70;;;73.40;;
5710;SDS011;61291;52.524;13.422;2023-07-31T01:38:04;75.10;;;69.20;;
5710;SDS011;61291;52.524;13.422;2023-07-31T01:40:30;74.97;;;69.77;;
5710;SDS011;61291;52.524;13.422;2023-07-31T01:42:55;77.43;;;72.20;;
5710;SDS011;61291;52.524;13.422;2023-07-31T01:45:20;79.97;;;74.93;;
5710;SDS011;61291;52.524;13.422;2023-07-31T01:47:46;75.20;;;70.60;;
5710;SDS011;61291;52.524;13.422;2023-07-31T01:50:12;75.40;;;70.40;;
5710;SDS011;61291;52.524;13.422;2023-07-31T01:52:37;74.57;;;70.00;;
5710;SDS011;61291;52.524;13.422;2023-07-31T01:55:03;73.27;;;68.67;;
5710;SDS011;61291;52.524;13.422;2023-07-31T01:57:28;84.33;;;79.20;;
5710;SDS011;61291;52.524;13.422;2023-07-31T01:59:54;73.63;;;69.23;;
5710;SDS011;61291;52.524;13.422;2023-07-31T02:02:19;74.60;;;69.90;;
5710;SDS011;61291;52.524;13.422;2023-07-31T02:04:45;79.43;;;74.00;;
5710;SDS011;61291;52.524;13.422;2023-07-31T02:07:11;80.77;;;75.83;;
5710;SDS011;61291;52.524;13.422;2023-07-31T02:09:37;85.07;;;78.23;;
5710;SDS011;61291;52.524;13.422;2023-07-31T02:12:02;79.97;;;74.83;;
5710;SDS011;61291;52.524;13.422;2023-07-31T02:14:28;81.23;;;75.93;;
5710;SDS011;61291;52.524;13.422;2023-07-31T02:16:53;84.57;;;79.37;;
5710;SDS011;61291;52.524;13.422;2023-07-31T02:19:19;82.60;;;77.37;;
5710;SDS011;61291;52.524;13.422;2023-07-31T02:21:44;88.23;;;82.23;;
5710;SDS011;61291;52.524;13.422;2023-07-31T02:24:10;85.73;;;79.93;;
5710;SDS011;61291;52.524;13.422;2023-07-31T02:26:35;89.73;;;84.27;;
5710;SDS011;61291;52.524;13.422;2023-07-31T02:29:01;92.20;;;86.00;;
5710;SDS011;61291;52.524;13.422;2023-07-31T02:31:26;83.77;;;78.57;;
5710;SDS011;61291;52.524;13.422;2023-07-31T02:33:51;86.53;;;80.53;;
5710;SDS011;61291;52.524;13.422;2023-07-31T02:36:17;82.87;;;77.60;;
5710;SDS011;61291;52.524;13.422;2023-07-31T02:38:42;85.07;;;79.23;;
5710;SDS011;61291;52.524;13.422;2023-07-31T02:41:08;84.47;;;79.00;;
5710;SDS011;61291;52.524;13.422;2023-07-31T02:43:33;81.07;;;76.07;;
5710;SDS011;61291;52.524;13.422;2023-07-31T02:45:59;82.33;;;77.50;;
5710;SDS011;61291;52.524;13.422;2023-07-31T02:48:25;85.83;;;80.73;;
5710;SDS011;61291;52.524;13.422;2023-07-31T02:50:50;82.63;;;77.30;;
5710;SDS011;61291;52.524;13.422;2023-07-31T02:53:16;83.77;;;78.00;;
5710;SDS011;61291;52.524;13.422;2023-07-31T02:55:41;80.37;;;75.37;;
5710;SDS011;61291;52.524;13.422;2023-07-31T02:58:06;83.90;;;78.60;;
5710;SDS011;61291;52.524;13.422;2023-07-31T03:00:32;72.40;;;67.63;;
5710;SDS011;61291;52.524;13.422;2023-07-31T03:02:57;86.33;;;80.93;;
5710;SDS011;61291;52.524;13.422;2023-07-31T03:05:23;96.13;;;89.63;;
5710;SDS011;61291;52.524;13.422;2023-07-31T03:07:48;82.27;;;76.87;;
5710;SDS011;61291;52.524;13.422;2023-07-31T03:10:14;92.80;;;86.73;;
5710;SDS011;61291;52.524;13.422;2023-07-31T03:12:40;88.67;;;82.43;;
5710;SDS011;61291;52.524;13.422;2023-07-31T03:15:05;85.57;;;80.10;;
5710;SDS011;61291;52.524;13.422;2023-07-31T03:17:31;96.43;;;90.00;;
5710;SDS011;61291;52.524;13.422;2023-07-31T03:19:56;87.10;;;81.57;;
5710;SDS011;61291;52.524;13.422;2023-07-31T03:22:22;96.83;;;90.60;;
5710;SDS011;61291;52.524;13.422;2023-07-31T03:24:47;93.47;;;87.67;;
5710;SDS011;61291;52.524;13.422;2023-07-31T03:27:13;87.47;;;81.87;;
5710;SDS011;61291;52.524;13.422;2023-07-31T03:29:38;88.40;;;82.77;;
5710;SDS011;61291;52.524;13.422;2023-07-31T03:32:04;88.10;;;82.33;;
5710;SDS011;61291;52.524;13.422;2023-07-31T03:34:30;89.70;;;83.50;;
5710;SDS011;61291;52.524;13.422;2023-07-31T03:36:56;88.77;;;83.17;;
5710;SDS011;61291;52.524;13.422;2023-07-31T03:39:22;90.50;;;84.90;;
5710;SDS011;61291;52.524;13.422;2023-07-31T03:41:48;83.57;;;77.67;;
5710;SDS011;61291;52.524;13.422;2023-07-31T03:44:13;93.23;;;86.70;;
5710;SDS011;61291;52.524;13.422;2023-07-31T03:46:39;86.43;;;79.80;;
5710;SDS011;61291;52.524;13.422;2023-07-31T03:49:04;95.20;;;88.77;;
5710;SDS011;61291;52.524;13.422;2023-07-31T03:51:30;93.90;;;87.20;;
5710;SDS011;61291;52.524;13.422;2023-07-31T03:53:55;90.90;;;85.00;;
5710;SDS011;61291;52.524;13.422;2023-07-31T03:56:21;94.73;;;88.33;;
5710;SDS011;61291;52.524;13.422;2023-07-31T03:58:47;92.97;;;86.90;;
5710;SDS011;61291;52.524;13.422;2023-07-31T04:01:12;90.73;;;84.93;;
5710;SDS011;61291;52.524;13.422;2023-07-31T04:03:38;83.27;;;77.50;;
5710;SDS011;61291;52.524;13.422;2023-07-31T04:06:03;93.10;;;87.00;;
5710;SDS011;61291;52.524;13.422;2023-07-31T04:08:29;86.97;;;81.37;;
5710;SDS011;61291;52.524;13.422;2023-07-31T04:10:54;74.37;;;69.03;;
5710;SDS011;61291;52.524;13.422;2023-07-31T04:13:21;90.10;;;83.80;;
5710;SDS011;61291;52.524;13.422;2023-07-31T04:15:50;87.20;;;81.40;;
5710;SDS011;61291;52.524;13.422;2023-07-31T04:18:15;90.97;;;84.57;;
5710;SDS011;61291;52.524;13.422;2023-07-31T04:20:41;92.67;;;86.43;;
5710;SDS011;61291;52.524;13.422;2023-07-31T04:23:07;88.90;;;82.90;;
5710;SDS011;61291;52.524;13.422;2023-07-31T04:25:32;95.93;;;89.43;;
5710;SDS011;61291;52.524;13.422;2023-07-31T04:27:59;90.70;;;84.77;;
5710;SDS011;61291;52.524;13.422;2023-07-31T04:30:25;88.63;;;82.53;;
5710;SDS011;61291;52.524;13.422;2023-07-31T04:32:51;84.50;;;78.90;;
5710;SDS011;61291;52.524;13.422;2023-07-31T04:35:16;94.80;;;87.97;;
5710;SDS011;61291;52.524;13.422;2023-07-31T04:37:41;78.77;;;73.17;;
5710;SDS011;61291;52.524;13.422;2023-07-31T04:40:07;84.13;;;77.93;;
5710;SDS011;61291;52.524;13.422;2023-07-31T04:42:33;87.07;;;81.57;;
5710;SDS011;61291;52.524;13.422;2023-07-31T04:44:59;88.27;;;82.33;;
5710;SDS011;61291;52.524;13.422;2023-07-31T04:47:25;84.73;;;79.33;;
5710;SDS011;61291;52.524;13.422;2023-07-31T04:49:50;80.63;;;74.40;;
5710;SDS011;61291;52.524;13.422;2023-07-31T04:52:15;82.33;;;76.83;;
5710;SDS011;61291;52.524;13.422;2023-07-31T04:54:41;81.07;;;75.67;;
5710;SDS011;61291;52.524;13.422;2023-07-31T04:57:06;81.83;;;76.13;;
5710;SDS011;61291;52.524;13.422;2023-07-31T04:59:32;82.77;;;77.13;;
5710;SDS011;61291;52.524;13.422;2023-07-31T05:01:57;81.90;;;75.10;;
5710;SDS011;61291;52.524;13.422;2023-07-31T05:04:23;77.87;;;72.00;;
5710;SDS011;61291;52.524;13.422;2023-07-31T05:06:48;75.60;;;69.87;;
5710;SDS011;61291;52.524;13.422;2023-07-31T05:09:13;83.00;;;76.33;;
5710;SDS011;61291;52.524;13.422;2023-07-31T05:11:39;78.87;;;73.70;;
5710;SDS011;61291;52.524;13.422;2023-07-31T05:14:05;83.33;;;77.80;;
5710;SDS011;61291;52.524;13.422;2023-07-31T05:16:31;79.87;;;74.33;;
5710;SDS011;61291;52.524;13.422;2023-07-31T05:18:56;78.77;;;73.20;;
5710;SDS011;61291;52.524;13.422;2023-07-31T05:21:22;76.03;;;70.77;;
5710;SDS011;61291;52.524;13.422;2023-07-31T05:23:48;79.00;;;73.20;;
5710;SDS011;61291;52.524;13.422;2023-07-31T05:26:14;84.23;;;78.63;;
5710;SDS011;61291;52.524;13.422;2023-07-31T05:28:39;72.33;;;67.40;;
5710;SDS011;61291;52.524;13.422;2023-07-31T05:31:05;81.50;;;75.27;;
5710;SDS011;61291;52.524;13.422;2023-07-31T05:33:31;76.93;;;71.53;;
5710;SDS011;61291;52.524;13.422;2023-07-31T05:35:57;81.10;;;75.47;;
5710;SDS011;61291;52.524;13.422;2023-07-31T05:38:22;71.47;;;66.20;;
5710;SDS011;61291;52.524;13.422;2023-07-31T05:40:48;79.73;;;73.97;;
5710;SDS011;61291;52.524;13.422;2023-07-31T05:43:14;76.87;;;71.67;;
5710;SDS011;61291;52.524;13.422;2023-07-31T05:45:39;80.17;;;74.47;;
5710;SDS011;61291;52.524;13.422;2023-07-31T05:48:06;76.60;;;71.13;;
5710;SDS011;61291;52.524;13.422;2023-07-31T05:50:32;77.43;;;72.53;;
5710;SDS011;61291;52.524;13.422;2023-07-31T05:52:57;82.30;;;77.10;;
5710;SDS011;61291;52.524;13.422;2023-07-31T05:55:23;75.00;;;69.80;;
5710;SDS011;61291;52.524;13.422;2023-07-31T05:57:51;73.50;;;68.43;;
5710;SDS011;61291;52.524;13.422;2023-07-31T06:00:17;79.90;;;74.23;;
5710;SDS011;61291;52.524;13.422;2023-07-31T06:02:43;76.67;;;71.67;;
5710;SDS011;61291;52.524;13.422;2023-07-31T06:05:08;79.33;;;73.23;;
5710;SDS011;61291;52.524;13.422;2023-07-31T06:07:34;71.23;;;66.50;;
5710;SDS011;61291;52.524;13.422;2023-07-31T06:09:59;76.23;;;71.03;;
5710;SDS011;61291;52.524;13.422;2023-07-31T06:12:30;74.37;;;69.27;;
5710;SDS011;61291;52.524;13.422;2023-07-31T06:14:56;80.70;;;75.77;;
5710;SDS011;61291;52.524;13.422;2023-07-31T06:17:22;74.40;;;69.33;;
5710;SDS011;61291;52.524;13.422;2023-07-31T06:19:47;77.00;;;71.23;;
5710;SDS011;61291;52.524;13.422;2023-07-31T06:22:13;73.60;;;68.23;;
5710;SDS011;61291;52.524;13.422;2023-07-31T06:24:39;74.53;;;69.63;;
5710;SDS011;61291;52.524;13.422;2023-07-31T06:27:04;71.97;;;67.07;;
5710;SDS011;61291;52.524;13.422;2023-07-31T06:29:31;79.03;;;72.70;;
5710;SDS011;61291;52.524;13.422;2023-07-31T06:31:56;73.20;;;68.10;;
5710;SDS011;61291;52.524;13.422;2023-07-31T06:34:22;71.30;;;66.40;;
5710;SDS011;61291;52.524;13.422;2023-07-31T06:36:47;77.60;;;71.83;;
5710;SDS011;61291;52.524;13.422;2023-07-31T06:39:13;71.90;;;67.13;;
5710;SDS011;61291;52.524;13.422;2023-07-31T06:41:38;78.30;;;72.33;;
5710;SDS011;61291;52.524;13.422;2023-07-31T06:44:04;70.80;;;65.57;;
5710;SDS011;61291;52.524;13.422;2023-07-31T06:46:29;78.13;;;72.70;;
5710;SDS011;61291;52.524;13.422;2023-07-31T06:48:55;68.43;;;63.27;;
5710;SDS011;61291;52.524;13.422;2023-07-31T06:51:20;65.03;;;60.33;;
5710;SDS011;61291;52.524;13.422;2023-07-31T06:53:46;59.88;;;55.67;;
5710;SDS011;61291;52.524;13.422;2023-07-31T06:56:11;66.87;;;62.27;;
5710;SDS011;61291;52.524;13.422;2023-07-31T06:58:37;67.70;;;62.43;;
5710;SDS011;61291;52.524;13.422;2023-07-31T07:01:03;66.10;;;61.10;;
5710;SDS011;61291;52.524;13.422;2023-07-31T07:03:28;66.83;;;62.20;;
5710;SDS011;61291;52.524;13.422;2023-07-31T07:05:54;75.47;;;70.67;;
5710;SDS011;61291;52.524;13.422;2023-07-31T07:08:20;72.17;;;67.53;;
5710;SDS011;61291;52.524;13.422;2023-07-31T07:10:46;71.10;;;66.47;;
5710;SDS011;61291;52.524;13.422;2023-07-31T07:13:11;77.97;;;72.97;;
5710;SDS011;61291;52.524;13.422;2023-07-31T07:15:38;82.27;;;76.80;;
5710;SDS011;61291;52.524;13.422;2023-07-31T07:18:03;68.63;;;63.87;;
5710;SDS011;61291;52.524;13.422;2023-07-31T07:20:29;69.93;;;64.83;;
5710;SDS011;61291;52.524;13.422;2023-07-31T07:22:54;73.03;;;67.57;;
5710;SDS011;61291;52.524;13.422;2023-07-31T07:25:20;75.30;;;69.63;;
5710;SDS011;61291;52.524;13.422;2023-07-31T07:27:45;73.00;;;67.50;;
5710;SDS011;61291;52.524;13.422;2023-07-31T07:30:11;75.03;;;69.90;;
5710;SDS011;61291;52.524;13.422;2023-07-31T07:32:36;74.47;;;69.37;;
5710;SDS011;61291;52.524;13.422;2023-07-31T07:35:02;74.83;;;69.90;;
5710;SDS011;61291;52.524;13.422;2023-07-31T07:37:28;70.93;;;66.20;;
5710;SDS011;61291;52.524;13.422;2023-07-31T07:39:53;72.53;;;67.40;;
5710;SDS011;61291;52.524;13.422;2023-07-31T07:42:19;75.80;;;71.00;;
5710;SDS011;61291;52.524;13.422;2023-07-31T07:44:44;81.13;;;75.40;;
5710;SDS011;61291;52.524;13.422;2023-07-31T07:47:10;75.83;;;70.23;;
5710;SDS011;61291;52.524;13.422;2023-07-31T07:49:35;75.73;;;70.50;;
5710;SDS011;61291;52.524;13.422;2023-07-31T07:52:01;80.50;;;75.43;;
5710;SDS011;61291;52.524;13.422;2023-07-31T07:54:27;76.43;;;71.53;;
5710;SDS011;61291;52.524;13.422;2023-07-31T07:56:53;74.83;;;70.03;;
5710;SDS011;61291;52.524;13.422;2023-07-31T07:59:18;67.47;;;62.93;;
5710;SDS011;61291;52.524;13.422;2023-07-31T08:01:43;64.30;;;59.60;;
5710;SDS011;61291;52.524;13.422;2023-07-31T08:04:09;60.57;;;56.13;;
5710;SDS011;61291;52.524;13.422;2023-07-31T08:06:34;72.87;;;67.17;;
5710;SDS011;61291;52.524;13.422;2023-07-31T08:09:00;71.93;;;67.30;;
5710;SDS011;61291;52.524;13.422;2023-07-31T08:11:30;69.20;;;64.60;;
5710;SDS011;61291;52.524;13.422;2023-07-31T08:13:56;58.97;;;54.28;;
5710;SDS011;61291;52.524;13.422;2023-07-31T08:16:22;67.53;;;62.63;;
5710;SDS011;61291;52.524;13.422;2023-07-31T08:18:50;72.80;;;67.57;;
5710;SDS011;61291;52.524;13.422;2023-07-31T08:21:16;69.67;;;65.07;;
5710;SDS011;61291;52.524;13.422;2023-07-31T08:23:41;72.50;;;67.80;;
5710;SDS011;61291;52.524;13.422;2023-07-31T08:26:07;74.80;;;70.20;;
5710;SDS011;61291;52.524;13.422;2023-07-31T08:28:32;73.13;;;68.00;;
5710;SDS011;61291;52.524;13.422;2023-07-31T08:30:58;72.83;;;68.00;;
5710;SDS011;61291;52.524;13.422;2023-07-31T08:33:23;63.70;;;59.43;;
5710;SDS011;61291;52.524;13.422;2023-07-31T08:35:48;67.77;;;63.40;;
5710;SDS011;61291;52.524;13.422;2023-07-31T08:38:14;67.03;;;62.70;;
5710;SDS011;61291;52.524;13.422;2023-07-31T08:40:39;70.50;;;65.80;;
5710;SDS011;61291;52.524;13.422;2023-07-31T08:43:05;66.60;;;62.33;;
5710;SDS011;61291;52.524;13.422;2023-07-31T08:45:32;66.00;;;61.60;;
5710;SDS011;61291;52.524;13.422;2023-07-31T08:47:57;72.23;;;67.50;;
5710;SDS011;61291;52.524;13.422;2023-07-31T08:50:24;67.20;;;62.50;;
5710;SDS011;61291;52.524;13.422;2023-07-31T08:52:50;73.17;;;68.27;;
5710;SDS011;61291;52.524;13.422;2023-07-31T08:55:16;71.33;;;66.60;;
5710;SDS011;61291;52.524;13.422;2023-07-31T08:57:48;63.67;;;59.50;;
5710;SDS011;61291;52.524;13.422;2023-07-31T09:00:15;69.03;;;64.63;;
5710;SDS011;61291;52.524;13.422;2023-07-31T09:02:43;67.97;;;63.50;;
5710;SDS011;61291;52.524;13.422;2023-07-31T09:05:29;67.30;;;62.70;;
5710;SDS011;61291;52.524;13.422;2023-07-31T09:07:56;74.40;;;69.70;;
5710;SDS011;61291;52.524;13.422;2023-07-31T09:10:22;63.67;;;59.43;;
5710;SDS011;61291;52.524;13.422;2023-07-31T09:12:50;67.00;;;62.70;;
5710;SDS011;61291;52.524;13.422;2023-07-31T09:15:17;58.37;;;54.27;;
5710;SDS011;61291;52.524;13.422;2023-07-31T09:17:43;62.97;;;58.83;;
5710;SDS011;61291;52.524;13.422;2023-07-31T09:20:12;60.47;;;56.43;;
5710;SDS011;61291;52.524;13.422;2023-07-31T09:22:43;58.40;;;54.60;;
5710;SDS011;61291;52.524;13.422;2023-07-31T09:25:15;62.27;;;57.97;;
5710;SDS011;61291;52.524;13.422;2023-07-31T09:27:48;62.80;;;58.40;;
5710;SDS011;61291;52.524;13.422;2023-07-31T09:30:18;60.93;;;56.80;;
5710;SDS011;61291;52.524;13.422;2023-07-31T09:32:44;65.53;;;61.17;;
5710;SDS011;61291;52.524;13.422;2023-07-31T09:35:20;62.20;;;58.20;;
5710;SDS011;61291;52.524;13.422;2023-07-31T09:37:48;65.57;;;61.03;;
5710;SDS011;61291;52.524;13.422;2023-07-31T09:40:30;67.57;;;63.07;;
5710;SDS011;61291;52.524;13.422;2023-07-31T09:42:57;63.97;;;59.97;;
5710;SDS011;61291;52.524;13.422;2023-07-31T09:45:24;62.40;;;58.40;;
5710;SDS011;61291;52.524;13.422;2023-07-31T09:47:50;74.73;;;69.67;;
5710;SDS011;61291;52.524;13.422;2023-07-31T09:50:15;67.50;;;63.30;;
5710;SDS011;61291;52.524;13.422;2023-07-31T09:52:42;66.67;;;62.30;;
5710;SDS011;61291;52.524;13.422;2023-07-31T09:55:08;60.27;;;56.30;;
5710;SDS011;61291;52.524;13.422;2023-07-31T09:57:34;67.83;;;63.57;;
5710;SDS011;61291;52.524;13.422;2023-07-31T10:00:04;68.50;;;64.27;;
5710;SDS011;61291;52.524;13.422;2023-07-31T10:02:30;65.30;;;61.20;;
5710;SDS011;61291;52.524;13.422;2023-07-31T10:04:57;62.70;;;58.70;;
5710;SDS011;61291;52.524;13.422;2023-07-31T10:07:27;62.87;;;58.73;;
5710;SDS011;61291;52.524;13.422;2023-07-31T10:09:55;60.73;;;56.40;;
5710;SDS011;61291;52.524;13.422;2023-07-31T10:12:25;60.30;;;56.37;;
5710;SDS011;61291;52.524;13.422;2023-07-31T10:14:55;62.23;;;58.47;;
5710;SDS011;61291;52.524;13.422;2023-07-31T10:17:21;62.00;;;57.50;;
5710;SDS011;61291;52.524;13.422;2023-07-31T10:19:48;60.37;;;56.67;;
5710;SDS011;61291;52.524;13.422;2023-07-31T10:22:14;60.93;;;56.83;;
5710;SDS011;61291;52.524;13.422;2023-07-31T10:24:42;61.03;;;57.30;;
5710;SDS011;61291;52.524;13.422;2023-07-31T10:27:08;65.07;;;61.03;;
5710;SDS011;61291;52.524;13.422;2023-07-31T10:29:35;65.87;;;60.90;;
5710;SDS011;61291;52.524;13.422;2023-07-31T10:32:02;64.87;;;60.47;;
5710;SDS011;61291;52.524;13.422;2023-07-31T10:34:31;64.30;;;60.00;;
5710;SDS011;61291;52.524;13.422;2023-07-31T10:40:06;66.67;;;62.30;;
5710;SDS011;61291;52.524;13.422;2023-07-31T10:42:49;67.67;;;62.93;;
5710;SDS011;61291;52.524;13.422;2023-07-31T10:45:27;59.95;;;55.78;;
5710;SDS011;61291;52.524;13.422;2023-07-31T10:48:00;68.03;;;63.43;;
5710;SDS011;61291;52.524;13.422;2023-07-31T10:50:49;70.23;;;65.43;;
5710;SDS011;61291;52.524;13.422;2023-07-31T10:53:25;74.17;;;68.67;;
5710;SDS011;61291;52.524;13.422;2023-07-31T10:55:58;57.83;;;53.65;;
5710;SDS011;61291;52.524;13.422;2023-07-31T10:58:24;65.73;;;61.20;;
5710;SDS011;61291;52.524;13.422;2023-07-31T11:00:51;60.13;;;55.83;;
5710;SDS011;61291;52.524;13.422;2023-07-31T11:03:24;63.13;;;58.40;;
5710;SDS011;61291;52.524;13.422;2023-07-31T11:06:03;59.40;;;55.53;;
5710;SDS011;61291;52.524;13.422;2023-07-31T11:08:30;64.57;;;60.00;;
5710;SDS011;61291;52.524;13.422;2023-07-31T11:13:31;59.03;;;54.80;;
5710;SDS011;61291;52.524;13.422;2023-07-31T11:16:07;69.20;;;64.40;;
5710;SDS011;61291;52.524;13.422;2023-07-31T11:18:34;65.93;;;61.33;;
5710;SDS011;61291;52.524;13.422;2023-07-31T11:21:00;63.93;;;58.73;;
5710;SDS011;61291;52.524;13.422;2023-07-31T11:23:25;61.57;;;57.10;;
5710;SDS011;61291;52.524;13.422;2023-07-31T11:25:51;65.50;;;61.00;;
5710;SDS011;61291;52.524;13.422;2023-07-31T11:28:17;63.37;;;58.80;;
5710;SDS011;61291;52.524;13.422;2023-07-31T11:30:44;59.93;;;55.83;;
5710;SDS011;61291;52.524;13.422;2023-07-31T11:33:11;60.93;;;56.47;;
5710;SDS011;61291;52.524;13.422;2023-07-31T11:35:42;65.87;;;61.27;;
5710;SDS011;61291;52.524;13.422;2023-07-31T11:38:10;62.70;;;58.43;;
5710;SDS011;61291;52.524;13.422;2023-07-31T11:40:55;60.83;;;56.10;;
5710;SDS011;61291;52.524;13.422;2023-07-31T11:43:22;64.30;;;58.83;;
5710;SDS011;61291;52.524;13.422;2023-07-31T11:45:48;65.00;;;60.20;;
5710;SDS011;61291;52.524;13.422;2023-07-31T11:48:27;70.47;;;65.50;;
5710;SDS011;61291;52.524;13.422;2023-07-31T11:50:56;69.17;;;64.03;;
5710;SDS011;61291;52.524;13.422;2023-07-31T11:53:36;62.77;;;58.30;;
5710;SDS011;61291;52.524;13.422;2023-07-31T11:56:28;61.20;;;56.77;;
5710;SDS011;61291;52.524;13.422;2023-07-31T11:58:58;66.60;;;61.50;;
5710;SDS011;61291;52.524;13.422;2023-07-31T12:01:25;64.67;;;59.77;;
5710;SDS011;61291;52.524;13.422;2023-07-31T12:03:52;60.67;;;55.97;;
5710;SDS011;61291;52.524;13.422;2023-07-31T12:06:18;56.07;;;51.87;;
5710;SDS011;61291;52.524;13.422;2023-07-31T12:08:45;56.60;;;51.97;;
5710;SDS011;61291;52.524;13.422;2023-07-31T12:11:11;61.23;;;57.23;;
5710;SDS011;61291;52.524;13.422;2023-07-31T12:13:39;62.63;;;58.20;;
5710;SDS011;61291;52.524;13.422;2023-07-31T12:16:05;64.47;;;60.07;;
5710;SDS011;61291;52.524;13.422;2023-07-31T12:18:34;64.70;;;60.30;;
5710;SDS011;61291;52.524;13.422;2023-07-31T12:21:04;64.70;;;59.93;;
5710;SDS011;61291;52.524;13.422;2023-07-31T12:23:31;62.30;;;57.87;;
5710;SDS011;61291;52.524;13.422;2023-07-31T12:26:11;67.10;;;62.50;;
5710;SDS011;61291;52.524;13.422;2023-07-31T12:31:09;62.43;;;58.23;;
5710;SDS011;61291;52.524;13.422;2023-07-31T12:33:37;60.17;;;55.67;;
5710;SDS011;61291;52.524;13.422;2023-07-31T12:36:06;64.37;;;60.17;;
5710;SDS011;61291;52.524;13.422;2023-07-31T12:38:36;57.57;;;52.57;;
5710;SDS011;61291;52.524;13.422;2023-07-31T12:41:01;64.27;;;59.43;;
5710;SDS011;61291;52.524;13.422;2023-07-31T12:43:27;67.23;;;62.73;;
5710;SDS011;61291;52.524;13.422;2023-07-31T12:45:54;65.83;;;61.20;;
5710;SDS011;61291;52.524;13.422;2023-07-31T12:48:20;63.40;;;58.90;;
5710;SDS011;61291;52.524;13.422;2023-07-31T12:50:46;62.90;;;58.77;;
5710;SDS011;61291;52.524;13.422;2023-07-31T12:53:11;64.83;;;60.53;;
5710;SDS011;61291;52.524;13.422;2023-07-31T12:55:37;70.17;;;65.67;;
5710;SDS011;61291;52.524;13.422;2023-07-31T12:58:03;61.63;;;57.40;;
5710;SDS011;61291;52.524;13.422;2023-07-31T13:00:29;65.27;;;60.30;;
5710;SDS011;61291;52.524;13.422;2023-07-31T13:02:54;66.90;;;62.60;;
5710;SDS011;61291;52.524;13.422;2023-07-31T13:05:20;64.23;;;59.60;;
5710;SDS011;61291;52.524;13.422;2023-07-31T13:07:46;61.23;;;57.00;;
5710;SDS011;61291;52.524;13.422;2023-07-31T13:10:12;68.17;;;63.70;;
5710;SDS011;61291;52.524;13.422;2023-07-31T13:12:38;69.37;;;64.10;;
5710;SDS011;61291;52.524;13.422;2023-07-31T13:15:04;71.47;;;66.67;;
5710;SDS011;61291;52.524;13.422;2023-07-31T13:17:30;68.93;;;64.40;;
5710;SDS011;61291;52.524;13.422;2023-07-31T13:19:55;57.67;;;53.77;;
5710;SDS011;61291;52.524;13.422;2023-07-31T13:22:21;64.07;;;59.93;;
5710;SDS011;61291;52.524;13.422;2023-07-31T13:24:46;64.77;;;60.33;;
5710;SDS011;61291;52.524;13.422;2023-07-31T13:27:12;65.20;;;59.90;;
5710;SDS011;61291;52.524;13.422;2023-07-31T13:29:38;60.83;;;56.93;;
5710;SDS011;61291;52.524;13.422;2023-07-31T13:32:04;63.07;;;58.33;;
5710;SDS011;61291;52.524;13.422;2023-07-31T13:34:30;59.90;;;55.40;;
5710;SDS011;61291;52.524;13.422;2023-07-31T13:36:55;63.33;;;57.80;;
5710;SDS011;61291;52.524;13.422;2023-07-31T13:39:21;64.47;;;59.43;;
5710;SDS011;61291;52.524;13.422;2023-07-31T13:41:47;58.33;;;53.97;;
5710;SDS011;61291;52.524;13.422;2023-07-31T13:44:12;56.83;;;53.23;;
5710;SDS011;61291;52.524;13.422;2023-07-31T13:46:39;60.50;;;55.47;;
5710;SDS011;61291;52.524;13.422;2023-07-31T13:49:04;59.17;;;54.37;;
5710;SDS011;61291;52.524;13.422;2023-07-31T13:51:29;59.17;;;54.97;;
5710;SDS011;61291;52.524;13.422;2023-07-31T13:53:55;52.30;;;48.27;;
5710;SDS011;61291;52.524;13.422;2023-07-31T13:56:20;59.13;;;54.50;;
5710;SDS011;61291;52.524;13.422;2023-07-31T13:58:46;58.97;;;54.73;;
5710;SDS011;61291;52.524;13.422;2023-07-31T14:01:11;59.43;;;55.27;;
5710;SDS011;61291;52.524;13.422;2023-07-31T14:03:37;60.90;;;56.50;;
5710;SDS011;61291;52.524;13.422;2023-07-31T14:06:02;61.83;;;57.10;;
5710;SDS011;61291;52.524;13.422;2023-07-31T14:08:28;60.00;;;56.10;;
5710;SDS011;61291;52.524;13.422;2023-07-31T14:10:55;59.00;;;55.07;;
5710;SDS011;61291;52.524;13.422;2023-07-31T14:13:20;62.90;;;58.60;;
5710;SDS011;61291;52.524;13.422;2023-07-31T14:15:46;63.17;;;58.87;;
5710;SDS011;61291;52.524;13.422;2023-07-31T14:18:11;62.63;;;58.43;;
5710;SDS011;61291;52.524;13.422;2023-07-31T14:20:37;61.20;;;56.90;;
5710;SDS011;61291;52.524;13.422;2023-07-31T14:23:02;55.50;;;51.83;;
5710;SDS011;61291;52.524;13.422;2023-07-31T14:25:28;58.20;;;54.30;;
5710;SDS011;61291;52.524;13.422;2023-07-31T14:27:53;58.67;;;54.77;;
5710;SDS011;61291;52.524;13.422;2023-07-31T14:30:19;61.80;;;57.70;;